Royal Klipper — PCIH — position and weather

sailwx.info

Track history (hours):
 
Tides and Currents Weather Stations Pressure Air Temp Water Temp Dewpoint Dewpoint Depression Visibility Wind Speed Wind Dir Waves Ship Positions

Royal Klipper

Last reported at 2015-Sep-03 02:32 UTC. Time now 2015-Sep-03 17:12 UTC.
Position N 49°47' W 000°49'.

Type: Cargo ship. MMSI: 246428000.

Date/timePositionNaut miles runAvg speedWind from/ knotsBaromVisibWave heightAir tempDewpointWater temp
2015-Sep-03 02:32N 49°47' W 000°49'1717.1
2015-Sep-03 01:34N 49°39' W 000°26'1716.6
2015-Sep-03 00:33N 49°29' W 000°05'1111.2
2015-Sep-02 23:33N 49°26' E 000°11'8 8.2
2015-Sep-02 22:33N 49°27' E 000°24'4 4.3
2015-Sep-02 21:33N 49°29' E 000°29'0 0.0
2015-Sep-02 20:31N 49°29' E 000°29'0 0.0
2015-Sep-02 19:31N 49°29' E 000°29'0 0.0
2015-Sep-02 18:22N 49°29' E 000°29'0 0.0
2015-Sep-02 17:28N 49°29' E 000°29'0 0.0
2015-Sep-02 16:31N 49°29' E 000°29'0 0.0
2015-Sep-02 15:31N 49°29' E 000°29'0 0.0
2015-Sep-02 14:31N 49°29' E 000°29'0 0.0
2015-Sep-02 13:31N 49°29' E 000°29'0 0.0
2015-Sep-02 12:31N 49°29' E 000°29'0 0.0
2015-Sep-02 11:31N 49°29' E 000°29'0 0.0
2015-Sep-02 09:31N 49°29' E 000°29'0 0.0
2015-Sep-02 08:28N 49°29' E 000°29'0 0.0
2015-Sep-02 07:28N 49°29' E 000°29'0 0.0
2015-Sep-02 06:31N 49°29' E 000°29'0 0.0
2015-Sep-02 05:32N 49°29' E 000°29'0 0.0
2015-Sep-02 04:32N 49°29' E 000°29'0 0.0
2015-Sep-02 03:32N 49°29' E 000°29'0 0.0
2015-Sep-02 02:32N 49°29' E 000°29'1 1.1
2015-Sep-02 01:34N 49°28' E 000°28'1110.9
2015-Sep-02 00:34N 49°26' E 000°12'1111.0
2015-Sep-01 23:34N 49°29' W 000°05'1312.9
2015-Sep-01 22:33N 49°37' W 000°20'5116.1
2015-Sep-01 19:25N 50°27' W 000°03'1719.6
2015-Sep-01 18:33N 50°33' E 000°21'2020.2
2015-Sep-01 17:33N 50°41' E 000°51'2019.3
2015-Sep-01 16:31N 50°53' E 001°16'1617.0
2015-Sep-01 15:34N 51°05' E 001°34'1312.6
2015-Sep-01 14:33N 51°02' E 001°54'1413.8
2015-Sep-01 13:33N 51°04' E 002°16'3 3.0
2015-Sep-01 12:33N 51°03' E 002°20'1 0.6
2015-Sep-01 11:30N 51°03' E 002°21'0 0.0
2015-Sep-01 10:33N 51°03' E 002°21'0 0.0
2015-Sep-01 09:30N 51°03' E 002°21'0 0.0
2015-Sep-01 08:33N 51°03' E 002°21'0 0.0
2015-Sep-01 07:30N 51°03' E 002°21'0 0.0
2015-Sep-01 06:30N 51°03' E 002°21'0 0.0
2015-Sep-01 05:06N 51°03' E 002°21'0 0.0
2015-Sep-01 04:31N 51°03' E 002°21'0 0.0
2015-Sep-01 03:18N 51°03' E 002°21'0 0.0
2015-Sep-01 02:31N 51°03' E 002°21'0 0.0
2015-Sep-01 01:24N 51°03' E 002°21'1 0.8
2015-Sep-01 00:33N 51°03' E 002°21'11 8.4
2015-Aug-31 23:12N 51°03' E 002°02'812.9
2015-Aug-31 22:33N 51°02' E 001°49'9 9.0
2015-Aug-31 21:34N 51°09' E 001°40'2020.3
2015-Aug-31 20:34N 51°24' E 002°02'2119.1
2015-Aug-31 19:27N 51°23' E 002°36'1314.3
2015-Aug-31 18:33N 51°25' E 002°56'2020.1
2015-Aug-31 17:33N 51°25' E 003°28'1010.3
2015-Aug-31 16:34N 51°22' E 003°44'1010.4
2015-Aug-31 15:33N 51°26' E 003°60'8 7.6
2015-Aug-31 14:33N 51°24' E 004°11'5 4.9
2015-Aug-31 13:33N 51°21' E 004°17'3 2.8
2015-Aug-31 12:34N 51°18' E 004°19'4 3.8
2015-Aug-31 11:32N 51°15' E 004°22'0 0.0
2015-Aug-31 10:32N 51°15' E 004°22'0 0.0
2015-Aug-31 09:32N 51°15' E 004°22'0 0.0
2015-Aug-31 08:32N 51°15' E 004°22'0 0.0
2015-Aug-31 07:32N 51°15' E 004°22'0 0.0
2015-Aug-31 06:32N 51°15' E 004°22'0 0.0
2015-Aug-31 05:32N 51°15' E 004°22'0 0.0
2015-Aug-31 04:32N 51°15' E 004°22'0 0.0
2015-Aug-31 03:32N 51°15' E 004°22'0 0.0
2015-Aug-31 02:32N 51°15' E 004°22'0 0.0
2015-Aug-31 01:32N 51°15' E 004°22'0 0.0
2015-Aug-31 00:32N 51°15' E 004°22'0 0.0
2015-Aug-30 23:32N 51°15' E 004°22'0 0.0
2015-Aug-30 22:32N 51°15' E 004°22'0 0.0
2015-Aug-30 21:32N 51°15' E 004°22'0 0.0
2015-Aug-30 20:32N 51°15' E 004°22'2 2.4
2015-Aug-30 19:33N 51°17' E 004°20'5 4.5
2015-Aug-30 18:33N 51°21' E 004°17'3 3.4
2015-Aug-30 17:33N 51°23' E 004°13'9 9.3
2015-Aug-30 16:33N 51°25' E 003°58'10 9.9
2015-Aug-30 15:33N 51°23' E 003°43'1010.1
2015-Aug-30 14:33N 51°25' E 003°27'1010.0
2015-Aug-30 13:33N 51°21' E 003°12'2 1.7
2015-Aug-30 12:33N 51°20' E 003°13'1 0.7
2015-Aug-30 11:33N 51°19' E 003°13'0 0.0
2015-Aug-30 10:33N 51°19' E 003°13'0 0.0
2015-Aug-30 09:33N 51°19' E 003°13'0 0.0
2015-Aug-30 08:33N 51°19' E 003°13'0 0.0
2015-Aug-30 07:33N 51°19' E 003°13'0 0.0
2015-Aug-30 06:33N 51°19' E 003°13'0 0.0
2015-Aug-30 05:30N 51°19' E 003°13'0 0.0
2015-Aug-30 04:33N 51°19' E 003°13'0 0.0
2015-Aug-30 03:24N 51°19' E 003°13'0 0.0
2015-Aug-30 02:33N 51°19' E 003°13'0 0.0
2015-Aug-30 01:27N 51°19' E 003°13'0 0.0
2015-Aug-30 00:33N 51°19' E 003°13'0 0.0
2015-Aug-29 23:33N 51°19' E 003°13'0 0.0
2015-Aug-29 22:30N 51°19' E 003°13'0 0.0
2015-Aug-29 21:33N 51°19' E 003°13'0 0.0
2015-Aug-29 20:33N 51°19' E 003°13'0 0.0
2015-Aug-29 19:30N 51°19' E 003°13'0 0.0
2015-Aug-29 18:27N 51°19' E 003°13'0 0.0
2015-Aug-29 17:30N 51°19' E 003°13'0 0.0
2015-Aug-29 16:33N 51°19' E 003°13'0 0.0
2015-Aug-29 15:33N 51°19' E 003°13'0 0.0
2015-Aug-29 14:33N 51°19' E 003°13'0 0.0
2015-Aug-29 13:33N 51°19' E 003°13'0 0.0
2015-Aug-29 12:33N 51°19' E 003°13'0 0.0
2015-Aug-29 11:33N 51°19' E 003°13'0 0.0
2015-Aug-29 10:33N 51°19' E 003°13'0 0.0
2015-Aug-29 09:33N 51°19' E 003°13'0 0.0
2015-Aug-29 08:33N 51°19' E 003°13'0 0.0
2015-Aug-29 07:33N 51°19' E 003°13'0 0.0
2015-Aug-29 06:33N 51°19' E 003°13'0 0.0
2015-Aug-29 05:33N 51°19' E 003°13'0 0.0
2015-Aug-29 04:33N 51°19' E 003°13'0 0.0
2015-Aug-29 03:33N 51°19' E 003°13'0 0.0
2015-Aug-29 02:30N 51°19' E 003°13'0 0.0
2015-Aug-29 01:33N 51°19' E 003°13'0 0.0
2015-Aug-29 00:33N 51°19' E 003°13'0 0.0
2015-Aug-28 23:33N 51°19' E 003°13'0 0.0
2015-Aug-28 22:33N 51°19' E 003°13'0 0.0
2015-Aug-28 21:33N 51°19' E 003°13'0 0.0
2015-Aug-28 20:33N 51°19' E 003°13'0 0.0
2015-Aug-28 19:33N 51°19' E 003°13'0 0.0
2015-Aug-28 18:33N 51°19' E 003°13'0 0.0
2015-Aug-28 17:33N 51°19' E 003°13'0 0.0
2015-Aug-28 16:33N 51°19' E 003°13'0 0.0
2015-Aug-28 15:33N 51°19' E 003°13'0 0.0
2015-Aug-28 14:33N 51°19' E 003°13'0 0.0
2015-Aug-28 13:33N 51°19' E 003°13'0 0.0
2015-Aug-28 12:33N 51°19' E 003°13'0 0.0
2015-Aug-28 11:33N 51°19' E 003°13'0 0.0
2015-Aug-28 10:33N 51°19' E 003°13'0 0.0
2015-Aug-28 09:33N 51°19' E 003°13'0 0.0
2015-Aug-28 08:30N 51°19' E 003°13'0 0.0
2015-Aug-28 07:30N 51°19' E 003°13'0 0.0
2015-Aug-28 06:33N 51°19' E 003°13'0 0.0
2015-Aug-28 05:33N 51°19' E 003°13'0 0.0
2015-Aug-28 04:33N 51°19' E 003°13'0 0.0
2015-Aug-28 03:33N 51°19' E 003°13'0 0.0
2015-Aug-28 02:30N 51°19' E 003°13'0 0.0
2015-Aug-28 01:33N 51°19' E 003°13'0 0.0
2015-Aug-28 00:33N 51°19' E 003°13'0 0.0
2015-Aug-27 23:21N 51°19' E 003°13'0 0.0
2015-Aug-27 22:33N 51°19' E 003°13'0 0.0
2015-Aug-27 21:24N 51°19' E 003°13'0 0.0
2015-Aug-27 20:33N 51°19' E 003°13'0 0.0
2015-Aug-27 19:33N 51°19' E 003°13'0 0.0
2015-Aug-27 18:33N 51°19' E 003°13'0 0.0
2015-Aug-27 17:30N 51°19' E 003°13'0 0.0
2015-Aug-27 16:33N 51°19' E 003°13'0 0.0
2015-Aug-27 15:33N 51°19' E 003°13'0 0.0
2015-Aug-27 14:33N 51°19' E 003°13'0 0.0
2015-Aug-27 13:33N 51°19' E 003°13'0 0.0
2015-Aug-27 12:30N 51°19' E 003°13'0 0.0
2015-Aug-27 11:32N 51°19' E 003°13'0 0.0
2015-Aug-27 10:33N 51°19' E 003°13'0 0.0
2015-Aug-27 06:32N 51°19' E 003°13'0 0.0
2015-Aug-27 05:31N 51°19' E 003°13'0 0.0
2015-Aug-27 04:19N 51°19' E 003°13'0 0.0
2015-Aug-27 03:34N 51°19' E 003°13'0 0.0
2015-Aug-27 02:27N 51°19' E 003°13'0 0.0
2015-Aug-27 01:33N 51°19' E 003°13'0 0.0
2015-Aug-27 00:32N 51°19' E 003°13'0 0.0
2015-Aug-26 21:13N 51°19' E 003°13'0 0.0
2015-Aug-26 20:32N 51°19' E 003°13'1 0.9
2015-Aug-26 19:33N 51°20' E 003°13'1 1.3
2015-Aug-26 18:34N 51°21' E 003°12'1110.6
2015-Aug-26 17:33N 51°25' E 002°56'3 2.5
2015-Aug-26 16:33N 51°23' E 002°58'9 9.4
2015-Aug-26 15:34N 51°22' E 002°43'6 6.2
2015-Aug-26 14:34N 51°21' E 002°33'1 1.2
2015-Aug-26 13:33N 51°22' E 002°33'5 5.0
2015-Aug-26 12:34N 51°21' E 002°26'1716.5
2015-Aug-26 11:33N 51°13' E 002°03'1919.1
2015-Aug-26 10:33N 51°02' E 001°38'1919.1
2015-Aug-26 09:33N 50°46' E 001°23'27517.7
2015-Aug-25 18:00N 49°18' W 005°24'9916.5 180 / 151007.710.8 1.519.015.917.0
2015-Aug-25 12:00N 48°48' W 007°48'10817.9 220 / 101005.3 5.4 2.020.015.1
2015-Aug-25 06:00N 48°18' W 010°24'10918.1 200 / 201002.710.8 1.517.013.715.0
2015-Aug-25 00:00N 47°48' W 013°00'10617.6 250 / 81003.6 5.4 17.012.1
2015-Aug-24 18:00N 47°18' W 015°30'10717.8 230 / 181004.1 1.517.017.018.0
2015-Aug-24 12:00N 46°48' W 018°00'10717.9 250 / 101005.5 5.4 1.018.915.1
2015-Aug-24 06:00N 46°18' W 020°30'   250 / 151005.1 1.017.015.416.0
Track history (hours):
 
Tides and Currents Weather Stations Pressure Air Temp Water Temp Dewpoint Dewpoint Depression Visibility Wind Speed Wind Dir Waves Ship Positions

Royal Klipper

Last reported at 2015-Sep-03 02:32 UTC. Time now 2015-Sep-03 17:12 UTC.
Position N 49°47' W 000°49'.

Type: Cargo ship. MMSI: 246428000.

Date/timePositionNaut miles runAvg speedWind from/ knotsBaromVisibWave heightAir tempDewpointWater temp
2015-Sep-03 02:32N 49°47' W 000°49'1717.1
2015-Sep-03 01:34N 49°39' W 000°26'1716.6
2015-Sep-03 00:33N 49°29' W 000°05'1111.2
2015-Sep-02 23:33N 49°26' E 000°11'8 8.2
2015-Sep-02 22:33N 49°27' E 000°24'4 4.3
2015-Sep-02 21:33N 49°29' E 000°29'0 0.0
2015-Sep-02 20:31N 49°29' E 000°29'0 0.0
2015-Sep-02 19:31N 49°29' E 000°29'0 0.0
2015-Sep-02 18:22N 49°29' E 000°29'0 0.0
2015-Sep-02 17:28N 49°29' E 000°29'0 0.0
2015-Sep-02 16:31N 49°29' E 000°29'0 0.0
2015-Sep-02 15:31N 49°29' E 000°29'0 0.0
2015-Sep-02 14:31N 49°29' E 000°29'0 0.0
2015-Sep-02 13:31N 49°29' E 000°29'0 0.0
2015-Sep-02 12:31N 49°29' E 000°29'0 0.0
2015-Sep-02 11:31N 49°29' E 000°29'0 0.0
2015-Sep-02 09:31N 49°29' E 000°29'0 0.0
2015-Sep-02 08:28N 49°29' E 000°29'0 0.0
2015-Sep-02 07:28N 49°29' E 000°29'0 0.0
2015-Sep-02 06:31N 49°29' E 000°29'0 0.0
2015-Sep-02 05:32N 49°29' E 000°29'0 0.0
2015-Sep-02 04:32N 49°29' E 000°29'0 0.0
2015-Sep-02 03:32N 49°29' E 000°29'0 0.0
2015-Sep-02 02:32N 49°29' E 000°29'1 1.1
2015-Sep-02 01:34N 49°28' E 000°28'1110.9
2015-Sep-02 00:34N 49°26' E 000°12'1111.0
2015-Sep-01 23:34N 49°29' W 000°05'1312.9
2015-Sep-01 22:33N 49°37' W 000°20'5116.1
2015-Sep-01 19:25N 50°27' W 000°03'1719.6
2015-Sep-01 18:33N 50°33' E 000°21'2020.2
2015-Sep-01 17:33N 50°41' E 000°51'2019.3
2015-Sep-01 16:31N 50°53' E 001°16'1617.0
2015-Sep-01 15:34N 51°05' E 001°34'1312.6
2015-Sep-01 14:33N 51°02' E 001°54'1413.8
2015-Sep-01 13:33N 51°04' E 002°16'3 3.0
2015-Sep-01 12:33N 51°03' E 002°20'1 0.6
2015-Sep-01 11:30N 51°03' E 002°21'0 0.0
2015-Sep-01 10:33N 51°03' E 002°21'0 0.0
2015-Sep-01 09:30N 51°03' E 002°21'0 0.0
2015-Sep-01 08:33N 51°03' E 002°21'0 0.0
2015-Sep-01 07:30N 51°03' E 002°21'0 0.0
2015-Sep-01 06:30N 51°03' E 002°21'0 0.0
2015-Sep-01 05:06N 51°03' E 002°21'0 0.0
2015-Sep-01 04:31N 51°03' E 002°21'0 0.0
2015-Sep-01 03:18N 51°03' E 002°21'0 0.0
2015-Sep-01 02:31N 51°03' E 002°21'0 0.0
2015-Sep-01 01:24N 51°03' E 002°21'1 0.8
2015-Sep-01 00:33N 51°03' E 002°21'11 8.4
2015-Aug-31 23:12N 51°03' E 002°02'812.9
2015-Aug-31 22:33N 51°02' E 001°49'9 9.0
2015-Aug-31 21:34N 51°09' E 001°40'2020.3
2015-Aug-31 20:34N 51°24' E 002°02'2119.1
2015-Aug-31 19:27N 51°23' E 002°36'1314.3
2015-Aug-31 18:33N 51°25' E 002°56'2020.1
2015-Aug-31 17:33N 51°25' E 003°28'1010.3
2015-Aug-31 16:34N 51°22' E 003°44'1010.4
2015-Aug-31 15:33N 51°26' E 003°60'8 7.6
2015-Aug-31 14:33N 51°24' E 004°11'5 4.9
2015-Aug-31 13:33N 51°21' E 004°17'3 2.8
2015-Aug-31 12:34N 51°18' E 004°19'4 3.8
2015-Aug-31 11:32N 51°15' E 004°22'0 0.0
2015-Aug-31 10:32N 51°15' E 004°22'0 0.0
2015-Aug-31 09:32N 51°15' E 004°22'0 0.0
2015-Aug-31 08:32N 51°15' E 004°22'0 0.0
2015-Aug-31 07:32N 51°15' E 004°22'0 0.0
2015-Aug-31 06:32N 51°15' E 004°22'0 0.0
2015-Aug-31 05:32N 51°15' E 004°22'0 0.0
2015-Aug-31 04:32N 51°15' E 004°22'0 0.0
2015-Aug-31 03:32N 51°15' E 004°22'0 0.0
2015-Aug-31 02:32N 51°15' E 004°22'0 0.0
2015-Aug-31 01:32N 51°15' E 004°22'0 0.0
2015-Aug-31 00:32N 51°15' E 004°22'0 0.0
2015-Aug-30 23:32N 51°15' E 004°22'0 0.0
2015-Aug-30 22:32N 51°15' E 004°22'0 0.0
2015-Aug-30 21:32N 51°15' E 004°22'0 0.0
2015-Aug-30 20:32N 51°15' E 004°22'2 2.4
2015-Aug-30 19:33N 51°17' E 004°20'5 4.5
2015-Aug-30 18:33N 51°21' E 004°17'3 3.4
2015-Aug-30 17:33N 51°23' E 004°13'9 9.3
2015-Aug-30 16:33N 51°25' E 003°58'10 9.9
2015-Aug-30 15:33N 51°23' E 003°43'1010.1
2015-Aug-30 14:33N 51°25' E 003°27'1010.0
2015-Aug-30 13:33N 51°21' E 003°12'2 1.7
2015-Aug-30 12:33N 51°20' E 003°13'1 0.7
2015-Aug-30 11:33N 51°19' E 003°13'0 0.0
2015-Aug-30 10:33N 51°19' E 003°13'0 0.0
2015-Aug-30 09:33N 51°19' E 003°13'0 0.0
2015-Aug-30 08:33N 51°19' E 003°13'0 0.0
2015-Aug-30 07:33N 51°19' E 003°13'0 0.0
2015-Aug-30 06:33N 51°19' E 003°13'0 0.0
2015-Aug-30 05:30N 51°19' E 003°13'0 0.0
2015-Aug-30 04:33N 51°19' E 003°13'0 0.0
2015-Aug-30 03:24N 51°19' E 003°13'0 0.0
2015-Aug-30 02:33N 51°19' E 003°13'0 0.0
2015-Aug-30 01:27N 51°19' E 003°13'0 0.0
2015-Aug-30 00:33N 51°19' E 003°13'0 0.0
2015-Aug-29 23:33N 51°19' E 003°13'0 0.0
2015-Aug-29 22:30N 51°19' E 003°13'0 0.0
2015-Aug-29 21:33N 51°19' E 003°13'0 0.0
2015-Aug-29 20:33N 51°19' E 003°13'0 0.0
2015-Aug-29 19:30N 51°19' E 003°13'0 0.0
2015-Aug-29 18:27N 51°19' E 003°13'0 0.0
2015-Aug-29 17:30N 51°19' E 003°13'0 0.0
2015-Aug-29 16:33N 51°19' E 003°13'0 0.0
2015-Aug-29 15:33N 51°19' E 003°13'0 0.0
2015-Aug-29 14:33N 51°19' E 003°13'0 0.0
2015-Aug-29 13:33N 51°19' E 003°13'0 0.0
2015-Aug-29 12:33N 51°19' E 003°13'0 0.0
2015-Aug-29 11:33N 51°19' E 003°13'0 0.0
2015-Aug-29 10:33N 51°19' E 003°13'0 0.0
2015-Aug-29 09:33N 51°19' E 003°13'0 0.0
2015-Aug-29 08:33N 51°19' E 003°13'0 0.0
2015-Aug-29 07:33N 51°19' E 003°13'0 0.0
2015-Aug-29 06:33N 51°19' E 003°13'0 0.0
2015-Aug-29 05:33N 51°19' E 003°13'0 0.0
2015-Aug-29 04:33N 51°19' E 003°13'0 0.0
2015-Aug-29 03:33N 51°19' E 003°13'0 0.0
2015-Aug-29 02:30N 51°19' E 003°13'0 0.0
2015-Aug-29 01:33N 51°19' E 003°13'0 0.0
2015-Aug-29 00:33N 51°19' E 003°13'0 0.0
2015-Aug-28 23:33N 51°19' E 003°13'0 0.0
2015-Aug-28 22:33N 51°19' E 003°13'0 0.0
2015-Aug-28 21:33N 51°19' E 003°13'0 0.0
2015-Aug-28 20:33N 51°19' E 003°13'0 0.0
2015-Aug-28 19:33N 51°19' E 003°13'0 0.0
2015-Aug-28 18:33N 51°19' E 003°13'0 0.0
2015-Aug-28 17:33N 51°19' E 003°13'0 0.0
2015-Aug-28 16:33N 51°19' E 003°13'0 0.0
2015-Aug-28 15:33N 51°19' E 003°13'0 0.0
2015-Aug-28 14:33N 51°19' E 003°13'0 0.0
2015-Aug-28 13:33N 51°19' E 003°13'0 0.0
2015-Aug-28 12:33N 51°19' E 003°13'0 0.0
2015-Aug-28 11:33N 51°19' E 003°13'0 0.0
2015-Aug-28 10:33N 51°19' E 003°13'0 0.0
2015-Aug-28 09:33N 51°19' E 003°13'0 0.0
2015-Aug-28 08:30N 51°19' E 003°13'0 0.0
2015-Aug-28 07:30N 51°19' E 003°13'0 0.0
2015-Aug-28 06:33N 51°19' E 003°13'0 0.0
2015-Aug-28 05:33N 51°19' E 003°13'0 0.0
2015-Aug-28 04:33N 51°19' E 003°13'0 0.0
2015-Aug-28 03:33N 51°19' E 003°13'0 0.0
2015-Aug-28 02:30N 51°19' E 003°13'0 0.0
2015-Aug-28 01:33N 51°19' E 003°13'0 0.0
2015-Aug-28 00:33N 51°19' E 003°13'0 0.0
2015-Aug-27 23:21N 51°19' E 003°13'0 0.0
2015-Aug-27 22:33N 51°19' E 003°13'0 0.0
2015-Aug-27 21:24N 51°19' E 003°13'0 0.0
2015-Aug-27 20:33N 51°19' E 003°13'0 0.0
2015-Aug-27 19:33N 51°19' E 003°13'0 0.0
2015-Aug-27 18:33N 51°19' E 003°13'0 0.0
2015-Aug-27 17:30N 51°19' E 003°13'0 0.0
2015-Aug-27 16:33N 51°19' E 003°13'0 0.0
2015-Aug-27 15:33N 51°19' E 003°13'0 0.0
2015-Aug-27 14:33N 51°19' E 003°13'0 0.0
2015-Aug-27 13:33N 51°19' E 003°13'0 0.0
2015-Aug-27 12:30N 51°19' E 003°13'0 0.0
2015-Aug-27 11:32N 51°19' E 003°13'0 0.0
2015-Aug-27 10:33N 51°19' E 003°13'0 0.0
2015-Aug-27 06:32N 51°19' E 003°13'0 0.0
2015-Aug-27 05:31N 51°19' E 003°13'0 0.0
2015-Aug-27 04:19N 51°19' E 003°13'0 0.0
2015-Aug-27 03:34N 51°19' E 003°13'0 0.0
2015-Aug-27 02:27N 51°19' E 003°13'0 0.0
2015-Aug-27 01:33N 51°19' E 003°13'0 0.0
2015-Aug-27 00:32N 51°19' E 003°13'0 0.0
2015-Aug-26 21:13N 51°19' E 003°13'0 0.0
2015-Aug-26 20:32N 51°19' E 003°13'1 0.9
2015-Aug-26 19:33N 51°20' E 003°13'1 1.3
2015-Aug-26 18:34N 51°21' E 003°12'1110.6
2015-Aug-26 17:33N 51°25' E 002°56'3 2.5
2015-Aug-26 16:33N 51°23' E 002°58'9 9.4
2015-Aug-26 15:34N 51°22' E 002°43'6 6.2
2015-Aug-26 14:34N 51°21' E 002°33'1 1.2
2015-Aug-26 13:33N 51°22' E 002°33'5 5.0
2015-Aug-26 12:34N 51°21' E 002°26'1716.5
2015-Aug-26 11:33N 51°13' E 002°03'1919.1
2015-Aug-26 10:33N 51°02' E 001°38'1919.1
2015-Aug-26 09:33N 50°46' E 001°23'27517.7
2015-Aug-25 18:00N 49°18' W 005°24'9916.5 180 / 151007.710.8 1.519.015.917.0
2015-Aug-25 12:00N 48°48' W 007°48'10817.9 220 / 101005.3 5.4 2.020.015.1
2015-Aug-25 06:00N 48°18' W 010°24'10918.1 200 / 201002.710.8 1.517.013.715.0
2015-Aug-25 00:00N 47°48' W 013°00'10617.6 250 / 81003.6 5.4 17.012.1
2015-Aug-24 18:00N 47°18' W 015°30'10717.8 230 / 181004.1 1.517.017.018.0
2015-Aug-24 12:00N 46°48' W 018°00'10717.9 250 / 101005.5 5.4 1.018.915.1
2015-Aug-24 06:00N 46°18' W 020°30'   250 / 151005.1 1.017.015.416.0

Dump ship's entire track history